sensor_id;sensor_type;location;lat;lon;timestamp;temperature;humidity
13898;DHT22;7019;50.766;4.474;2023-01-28T00:01:23;3.30;99.90
13898;DHT22;7019;50.766;4.474;2023-01-28T00:03:50;3.30;99.90
13898;DHT22;7019;50.766;4.474;2023-01-28T00:06:17;3.30;99.90
13898;DHT22;7019;50.766;4.474;2023-01-28T00:08:45;3.30;99.90
13898;DHT22;7019;50.766;4.474;2023-01-28T00:11:12;3.30;99.90
13898;DHT22;7019;50.766;4.474;2023-01-28T00:13:41;3.30;99.90
13898;DHT22;7019;50.766;4.474;2023-01-28T00:16:08;3.30;99.90
13898;DHT22;7019;50.766;4.474;2023-01-28T00:18:36;3.30;99.90
13898;DHT22;7019;50.766;4.474;2023-01-28T00:21:05;3.30;99.90
13898;DHT22;7019;50.766;4.474;2023-01-28T00:23:34;3.30;99.90
13898;DHT22;7019;50.766;4.474;2023-01-28T00:26:02;3.30;99.90
13898;DHT22;7019;50.766;4.474;2023-01-28T00:28:30;3.30;99.90
13898;DHT22;7019;50.766;4.474;2023-01-28T00:30:59;3.20;99.90
13898;DHT22;7019;50.766;4.474;2023-01-28T00:33:31;3.20;99.90
13898;DHT22;7019;50.766;4.474;2023-01-28T00:35:59;3.20;99.90
13898;DHT22;7019;50.766;4.474;2023-01-28T00:38:26;3.20;99.90
13898;DHT22;7019;50.766;4.474;2023-01-28T00:40:54;3.20;99.90
13898;DHT22;7019;50.766;4.474;2023-01-28T00:43:21;3.20;99.90
13898;DHT22;7019;50.766;4.474;2023-01-28T00:45:48;3.20;99.90
13898;DHT22;7019;50.766;4.474;2023-01-28T00:48:16;3.20;99.90
13898;DHT22;7019;50.766;4.474;2023-01-28T00:50:44;3.20;99.90
13898;DHT22;7019;50.766;4.474;2023-01-28T00:53:11;3.20;99.90
13898;DHT22;7019;50.766;4.474;2023-01-28T00:55:38;3.20;99.90
13898;DHT22;7019;50.766;4.474;2023-01-28T00:58:05;3.20;99.90
13898;DHT22;7019;50.766;4.474;2023-01-28T01:00:32;3.20;99.90
13898;DHT22;7019;50.766;4.474;2023-01-28T01:02:59;3.10;99.90
13898;DHT22;7019;50.766;4.474;2023-01-28T01:05:27;3.10;99.90
13898;DHT22;7019;50.766;4.474;2023-01-28T01:07:55;3.20;99.90
13898;DHT22;7019;50.766;4.474;2023-01-28T01:10:22;3.20;99.90
13898;DHT22;7019;50.766;4.474;2023-01-28T01:12:49;3.20;99.90
13898;DHT22;7019;50.766;4.474;2023-01-28T01:15:17;3.20;99.90
13898;DHT22;7019;50.766;4.474;2023-01-28T01:17:47;3.20;99.90
13898;DHT22;7019;50.766;4.474;2023-01-28T01:20:17;3.20;99.90
13898;DHT22;7019;50.766;4.474;2023-01-28T01:22:46;3.20;99.90
13898;DHT22;7019;50.766;4.474;2023-01-28T01:25:14;3.20;99.90
13898;DHT22;7019;50.766;4.474;2023-01-28T01:27:42;3.10;99.90
13898;DHT22;7019;50.766;4.474;2023-01-28T01:30:11;3.10;99.90
13898;DHT22;7019;50.766;4.474;2023-01-28T01:32:38;3.10;99.90
13898;DHT22;7019;50.766;4.474;2023-01-28T01:35:06;3.10;99.90
13898;DHT22;7019;50.766;4.474;2023-01-28T01:37:34;3.20;99.90
13898;DHT22;7019;50.766;4.474;2023-01-28T01:40:04;3.20;99.90
13898;DHT22;7019;50.766;4.474;2023-01-28T01:42:32;3.20;99.90
13898;DHT22;7019;50.766;4.474;2023-01-28T01:45:01;3.20;99.90
13898;DHT22;7019;50.766;4.474;2023-01-28T01:47:35;3.20;99.90
13898;DHT22;7019;50.766;4.474;2023-01-28T01:50:08;3.20;99.90
13898;DHT22;7019;50.766;4.474;2023-01-28T01:52:37;3.20;99.90
13898;DHT22;7019;50.766;4.474;2023-01-28T01:55:11;3.20;99.90
13898;DHT22;7019;50.766;4.474;2023-01-28T01:57:40;3.10;99.90
13898;DHT22;7019;50.766;4.474;2023-01-28T02:00:10;3.10;99.90
13898;DHT22;7019;50.766;4.474;2023-01-28T02:02:39;3.10;99.90
13898;DHT22;7019;50.766;4.474;2023-01-28T02:05:09;3.10;99.90
13898;DHT22;7019;50.766;4.474;2023-01-28T02:07:36;3.10;99.90
13898;DHT22;7019;50.766;4.474;2023-01-28T02:10:07;3.10;99.90
13898;DHT22;7019;50.766;4.474;2023-01-28T02:12:36;3.10;99.90
13898;DHT22;7019;50.766;4.474;2023-01-28T02:15:07;3.10;99.90
13898;DHT22;7019;50.766;4.474;2023-01-28T02:17:35;3.10;99.90
13898;DHT22;7019;50.766;4.474;2023-01-28T02:20:05;3.10;99.90
13898;DHT22;7019;50.766;4.474;2023-01-28T02:28:54;3.10;99.90
13898;DHT22;7019;50.766;4.474;2023-01-28T02:31:25;3.00;99.90
13898;DHT22;7019;50.766;4.474;2023-01-28T02:33:59;3.10;99.90
13898;DHT22;7019;50.766;4.474;2023-01-28T02:36:35;3.00;99.90
13898;DHT22;7019;50.766;4.474;2023-01-28T02:39:08;3.00;99.90
13898;DHT22;7019;50.766;4.474;2023-01-28T02:41:39;2.90;99.90
13898;DHT22;7019;50.766;4.474;2023-01-28T02:44:09;2.90;99.90
13898;DHT22;7019;50.766;4.474;2023-01-28T02:46:37;2.90;99.90
13898;DHT22;7019;50.766;4.474;2023-01-28T02:49:21;2.90;99.90
13898;DHT22;7019;50.766;4.474;2023-01-28T02:52:10;2.90;99.90
13898;DHT22;7019;50.766;4.474;2023-01-28T02:54:48;2.90;99.90
13898;DHT22;7019;50.766;4.474;2023-01-28T02:57:27;3.00;99.90
13898;DHT22;7019;50.766;4.474;2023-01-28T03:00:02;3.00;99.90
13898;DHT22;7019;50.766;4.474;2023-01-28T03:02:35;3.00;99.90
13898;DHT22;7019;50.766;4.474;2023-01-28T03:05:06;2.90;99.90
13898;DHT22;7019;50.766;4.474;2023-01-28T03:07:37;2.90;99.90
13898;DHT22;7019;50.766;4.474;2023-01-28T03:10:07;2.90;99.90
13898;DHT22;7019;50.766;4.474;2023-01-28T03:12:35;2.90;99.90
13898;DHT22;7019;50.766;4.474;2023-01-28T03:15:25;2.90;99.90
13898;DHT22;7019;50.766;4.474;2023-01-28T03:18:12;2.90;99.90
13898;DHT22;7019;50.766;4.474;2023-01-28T03:21:03;2.90;99.90
13898;DHT22;7019;50.766;4.474;2023-01-28T03:23:53;2.90;99.90
13898;DHT22;7019;50.766;4.474;2023-01-28T03:26:44;2.90;99.90
13898;DHT22;7019;50.766;4.474;2023-01-28T03:29:31;2.90;99.90
13898;DHT22;7019;50.766;4.474;2023-01-28T03:32:18;3.00;99.90
13898;DHT22;7019;50.766;4.474;2023-01-28T03:35:05;2.90;99.90
13898;DHT22;7019;50.766;4.474;2023-01-28T03:37:50;2.90;99.90
13898;DHT22;7019;50.766;4.474;2023-01-28T03:40:17;2.90;99.90
13898;DHT22;7019;50.766;4.474;2023-01-28T03:42:44;2.90;99.90
13898;DHT22;7019;50.766;4.474;2023-01-28T03:45:12;2.90;99.90
13898;DHT22;7019;50.766;4.474;2023-01-28T03:47:40;2.90;99.90
13898;DHT22;7019;50.766;4.474;2023-01-28T03:50:09;2.80;99.90
13898;DHT22;7019;50.766;4.474;2023-01-28T03:52:37;2.80;99.90
13898;DHT22;7019;50.766;4.474;2023-01-28T03:55:05;2.80;99.90
13898;DHT22;7019;50.766;4.474;2023-01-28T03:57:38;2.90;99.90
13898;DHT22;7019;50.766;4.474;2023-01-28T04:00:08;2.90;99.90
13898;DHT22;7019;50.766;4.474;2023-01-28T04:02:36;2.90;99.90
13898;DHT22;7019;50.766;4.474;2023-01-28T04:05:08;2.80;99.90
13898;DHT22;7019;50.766;4.474;2023-01-28T04:07:37;2.80;99.90
13898;DHT22;7019;50.766;4.474;2023-01-28T04:10:06;2.80;99.90
13898;DHT22;7019;50.766;4.474;2023-01-28T04:12:34;2.90;99.90
13898;DHT22;7019;50.766;4.474;2023-01-28T04:15:04;2.90;99.90
13898;DHT22;7019;50.766;4.474;2023-01-28T04:17:42;2.80;99.90
13898;DHT22;7019;50.766;4.474;2023-01-28T04:20:12;2.90;99.90
13898;DHT22;7019;50.766;4.474;2023-01-28T04:22:40;2.80;99.90
13898;DHT22;7019;50.766;4.474;2023-01-28T04:25:08;2.80;99.90
13898;DHT22;7019;50.766;4.474;2023-01-28T04:27:35;2.80;99.90
13898;DHT22;7019;50.766;4.474;2023-01-28T04:30:03;2.70;99.90
13898;DHT22;7019;50.766;4.474;2023-01-28T04:32:30;2.70;99.90
13898;DHT22;7019;50.766;4.474;2023-01-28T04:34:57;2.70;99.90
13898;DHT22;7019;50.766;4.474;2023-01-28T04:37:26;2.70;99.90
13898;DHT22;7019;50.766;4.474;2023-01-28T04:39:53;2.70;99.90
13898;DHT22;7019;50.766;4.474;2023-01-28T04:42:21;2.70;99.90
13898;DHT22;7019;50.766;4.474;2023-01-28T04:44:48;2.80;99.90
13898;DHT22;7019;50.766;4.474;2023-01-28T04:47:15;2.80;99.90
13898;DHT22;7019;50.766;4.474;2023-01-28T04:49:42;2.80;99.90
13898;DHT22;7019;50.766;4.474;2023-01-28T04:52:09;2.70;99.90
13898;DHT22;7019;50.766;4.474;2023-01-28T04:54:37;2.70;99.90
13898;DHT22;7019;50.766;4.474;2023-01-28T04:57:04;2.70;99.90
13898;DHT22;7019;50.766;4.474;2023-01-28T04:59:31;2.70;99.90
13898;DHT22;7019;50.766;4.474;2023-01-28T05:01:58;2.70;99.90
13898;DHT22;7019;50.766;4.474;2023-01-28T05:04:25;2.70;99.90
13898;DHT22;7019;50.766;4.474;2023-01-28T05:06:52;2.60;99.90
13898;DHT22;7019;50.766;4.474;2023-01-28T05:09:20;2.60;99.90
13898;DHT22;7019;50.766;4.474;2023-01-28T05:11:48;2.60;99.90
13898;DHT22;7019;50.766;4.474;2023-01-28T05:14:15;2.60;99.90
13898;DHT22;7019;50.766;4.474;2023-01-28T05:16:42;2.60;99.90
13898;DHT22;7019;50.766;4.474;2023-01-28T05:19:09;2.60;99.90
13898;DHT22;7019;50.766;4.474;2023-01-28T05:21:36;2.60;99.90
13898;DHT22;7019;50.766;4.474;2023-01-28T05:24:04;2.60;99.90
13898;DHT22;7019;50.766;4.474;2023-01-28T05:26:31;2.50;99.90
13898;DHT22;7019;50.766;4.474;2023-01-28T05:29:00;2.50;99.90
13898;DHT22;7019;50.766;4.474;2023-01-28T05:31:27;2.50;99.90
13898;DHT22;7019;50.766;4.474;2023-01-28T05:33:54;2.50;99.90
13898;DHT22;7019;50.766;4.474;2023-01-28T05:36:21;2.60;99.90
13898;DHT22;7019;50.766;4.474;2023-01-28T05:38:48;2.60;99.90
13898;DHT22;7019;50.766;4.474;2023-01-28T05:41:15;2.50;99.90
13898;DHT22;7019;50.766;4.474;2023-01-28T05:43:42;2.50;99.90
13898;DHT22;7019;50.766;4.474;2023-01-28T05:46:10;2.50;99.90
13898;DHT22;7019;50.766;4.474;2023-01-28T05:48:38;2.50;99.90
13898;DHT22;7019;50.766;4.474;2023-01-28T05:51:05;2.50;99.90
13898;DHT22;7019;50.766;4.474;2023-01-28T05:53:32;2.60;99.90
13898;DHT22;7019;50.766;4.474;2023-01-28T05:55:59;2.60;99.90
13898;DHT22;7019;50.766;4.474;2023-01-28T05:58:26;2.50;99.90
13898;DHT22;7019;50.766;4.474;2023-01-28T06:00:56;2.50;99.90
13898;DHT22;7019;50.766;4.474;2023-01-28T06:03:25;2.50;99.90
13898;DHT22;7019;50.766;4.474;2023-01-28T06:05:52;2.50;99.90
13898;DHT22;7019;50.766;4.474;2023-01-28T06:08:19;2.50;99.90
13898;DHT22;7019;50.766;4.474;2023-01-28T06:10:46;2.50;99.90
13898;DHT22;7019;50.766;4.474;2023-01-28T06:13:13;2.50;99.90
13898;DHT22;7019;50.766;4.474;2023-01-28T06:15:40;2.40;99.90
13898;DHT22;7019;50.766;4.474;2023-01-28T06:18:07;2.40;99.90
13898;DHT22;7019;50.766;4.474;2023-01-28T06:20:36;2.40;99.90
13898;DHT22;7019;50.766;4.474;2023-01-28T06:23:03;2.40;99.90
13898;DHT22;7019;50.766;4.474;2023-01-28T06:25:30;2.40;99.90
13898;DHT22;7019;50.766;4.474;2023-01-28T06:27:57;2.40;99.90
13898;DHT22;7019;50.766;4.474;2023-01-28T06:30:24;2.40;99.90
13898;DHT22;7019;50.766;4.474;2023-01-28T06:32:54;2.40;99.90
13898;DHT22;7019;50.766;4.474;2023-01-28T06:35:21;2.40;99.90
13898;DHT22;7019;50.766;4.474;2023-01-28T06:37:51;2.30;99.90
13898;DHT22;7019;50.766;4.474;2023-01-28T06:40:18;2.40;99.90
13898;DHT22;7019;50.766;4.474;2023-01-28T06:42:47;2.40;99.90
13898;DHT22;7019;50.766;4.474;2023-01-28T06:45:15;2.40;99.90
13898;DHT22;7019;50.766;4.474;2023-01-28T06:47:42;2.40;99.90
13898;DHT22;7019;50.766;4.474;2023-01-28T06:50:10;2.30;99.90
13898;DHT22;7019;50.766;4.474;2023-01-28T06:52:37;2.30;99.90
13898;DHT22;7019;50.766;4.474;2023-01-28T06:55:07;2.30;99.90
13898;DHT22;7019;50.766;4.474;2023-01-28T06:57:37;2.30;99.90
13898;DHT22;7019;50.766;4.474;2023-01-28T07:00:06;2.30;99.90
13898;DHT22;7019;50.766;4.474;2023-01-28T07:02:35;2.30;99.90
13898;DHT22;7019;50.766;4.474;2023-01-28T07:05:02;2.30;99.90
13898;DHT22;7019;50.766;4.474;2023-01-28T07:07:29;2.30;99.90
13898;DHT22;7019;50.766;4.474;2023-01-28T07:09:56;2.30;99.90
13898;DHT22;7019;50.766;4.474;2023-01-28T07:12:25;2.20;99.90
13898;DHT22;7019;50.766;4.474;2023-01-28T07:14:52;2.30;99.90
13898;DHT22;7019;50.766;4.474;2023-01-28T07:17:19;2.30;99.90
13898;DHT22;7019;50.766;4.474;2023-01-28T07:19:46;2.30;99.90
13898;DHT22;7019;50.766;4.474;2023-01-28T07:22:13;2.20;99.90
13898;DHT22;7019;50.766;4.474;2023-01-28T07:24:40;2.20;99.90
13898;DHT22;7019;50.766;4.474;2023-01-28T07:27:07;2.20;99.90
13898;DHT22;7019;50.766;4.474;2023-01-28T07:29:36;2.20;99.90
13898;DHT22;7019;50.766;4.474;2023-01-28T07:32:03;2.30;99.90
13898;DHT22;7019;50.766;4.474;2023-01-28T07:34:31;2.30;99.90
13898;DHT22;7019;50.766;4.474;2023-01-28T07:36:59;2.30;99.90
13898;DHT22;7019;50.766;4.474;2023-01-28T07:39:26;2.20;99.90
13898;DHT22;7019;50.766;4.474;2023-01-28T07:41:53;2.20;99.90
13898;DHT22;7019;50.766;4.474;2023-01-28T07:44:20;2.20;99.90
13898;DHT22;7019;50.766;4.474;2023-01-28T07:46:48;2.20;99.90
13898;DHT22;7019;50.766;4.474;2023-01-28T07:49:15;2.20;99.90
13898;DHT22;7019;50.766;4.474;2023-01-28T07:51:42;2.20;99.90
13898;DHT22;7019;50.766;4.474;2023-01-28T07:54:11;2.10;99.90
13898;DHT22;7019;50.766;4.474;2023-01-28T07:56:39;2.20;99.90
13898;DHT22;7019;50.766;4.474;2023-01-28T07:59:06;2.10;99.90
13898;DHT22;7019;50.766;4.474;2023-01-28T08:01:33;2.20;99.90
13898;DHT22;7019;50.766;4.474;2023-01-28T08:04:01;2.20;99.90
13898;DHT22;7019;50.766;4.474;2023-01-28T08:06:28;2.20;99.90
13898;DHT22;7019;50.766;4.474;2023-01-28T08:08:55;2.20;99.90
13898;DHT22;7019;50.766;4.474;2023-01-28T08:11:22;2.10;99.90
13898;DHT22;7019;50.766;4.474;2023-01-28T08:13:49;2.20;99.90
13898;DHT22;7019;50.766;4.474;2023-01-28T08:16:17;2.20;99.90
13898;DHT22;7019;50.766;4.474;2023-01-28T08:18:46;2.10;99.90
13898;DHT22;7019;50.766;4.474;2023-01-28T08:21:14;2.20;99.90
13898;DHT22;7019;50.766;4.474;2023-01-28T08:23:41;2.10;99.90
13898;DHT22;7019;50.766;4.474;2023-01-28T08:26:08;2.10;99.90
13898;DHT22;7019;50.766;4.474;2023-01-28T08:28:35;2.20;99.90
13898;DHT22;7019;50.766;4.474;2023-01-28T08:31:02;2.10;99.90
13898;DHT22;7019;50.766;4.474;2023-01-28T08:33:30;2.10;99.90
13898;DHT22;7019;50.766;4.474;2023-01-28T08:35:57;2.10;99.90
13898;DHT22;7019;50.766;4.474;2023-01-28T08:38:25;2.20;99.90
13898;DHT22;7019;50.766;4.474;2023-01-28T08:40:55;2.20;99.90
13898;DHT22;7019;50.766;4.474;2023-01-28T08:43:22;2.20;99.90
13898;DHT22;7019;50.766;4.474;2023-01-28T08:45:49;2.30;99.90
13898;DHT22;7019;50.766;4.474;2023-01-28T08:48:17;2.20;99.90
13898;DHT22;7019;50.766;4.474;2023-01-28T08:50:45;2.30;99.90
13898;DHT22;7019;50.766;4.474;2023-01-28T08:53:13;2.30;99.90
13898;DHT22;7019;50.766;4.474;2023-01-28T08:55:42;2.30;99.90
13898;DHT22;7019;50.766;4.474;2023-01-28T08:58:11;2.30;99.90
13898;DHT22;7019;50.766;4.474;2023-01-28T09:00:38;2.40;99.90
13898;DHT22;7019;50.766;4.474;2023-01-28T09:03:05;2.30;99.90
13898;DHT22;7019;50.766;4.474;2023-01-28T09:05:33;2.30;99.90
13898;DHT22;7019;50.766;4.474;2023-01-28T09:08:00;2.30;99.90
13898;DHT22;7019;50.766;4.474;2023-01-28T09:10:28;2.30;99.90
13898;DHT22;7019;50.766;4.474;2023-01-28T09:12:56;2.20;99.90
13898;DHT22;7019;50.766;4.474;2023-01-28T09:15:24;2.20;99.90
13898;DHT22;7019;50.766;4.474;2023-01-28T09:17:56;2.20;99.90
13898;DHT22;7019;50.766;4.474;2023-01-28T09:20:24;2.20;99.90
13898;DHT22;7019;50.766;4.474;2023-01-28T09:22:51;2.20;99.90
13898;DHT22;7019;50.766;4.474;2023-01-28T09:25:18;2.30;99.90
13898;DHT22;7019;50.766;4.474;2023-01-28T09:27:45;2.30;99.90
13898;DHT22;7019;50.766;4.474;2023-01-28T09:30:14;2.30;99.90
13898;DHT22;7019;50.766;4.474;2023-01-28T09:32:42;2.40;99.90
13898;DHT22;7019;50.766;4.474;2023-01-28T09:35:09;2.40;99.90
13898;DHT22;7019;50.766;4.474;2023-01-28T09:37:36;2.40;99.90
13898;DHT22;7019;50.766;4.474;2023-01-28T09:40:04;2.40;99.90
13898;DHT22;7019;50.766;4.474;2023-01-28T09:42:42;2.30;99.90
13898;DHT22;7019;50.766;4.474;2023-01-28T09:45:18;2.30;99.90
13898;DHT22;7019;50.766;4.474;2023-01-28T09:47:50;2.30;99.90
13898;DHT22;7019;50.766;4.474;2023-01-28T09:50:24;2.40;99.90
13898;DHT22;7019;50.766;4.474;2023-01-28T09:52:54;2.40;99.90
13898;DHT22;7019;50.766;4.474;2023-01-28T09:55:29;2.40;99.90
13898;DHT22;7019;50.766;4.474;2023-01-28T09:57:57;2.50;99.90
13898;DHT22;7019;50.766;4.474;2023-01-28T10:00:29;2.40;99.90
13898;DHT22;7019;50.766;4.474;2023-01-28T10:03:22;2.50;99.90
13898;DHT22;7019;50.766;4.474;2023-01-28T10:05:56;2.50;99.90
13898;DHT22;7019;50.766;4.474;2023-01-28T10:08:40;2.50;99.90
13898;DHT22;7019;50.766;4.474;2023-01-28T10:11:16;2.60;99.90
13898;DHT22;7019;50.766;4.474;2023-01-28T10:13:49;2.60;99.90
13898;DHT22;7019;50.766;4.474;2023-01-28T10:16:28;2.60;99.90
13898;DHT22;7019;50.766;4.474;2023-01-28T10:19:05;2.50;99.90
13898;DHT22;7019;50.766;4.474;2023-01-28T10:21:36;2.50;99.90
13898;DHT22;7019;50.766;4.474;2023-01-28T10:24:10;2.60;99.90
13898;DHT22;7019;50.766;4.474;2023-01-28T10:26:40;2.50;99.90
13898;DHT22;7019;50.766;4.474;2023-01-28T10:29:12;2.40;99.90
13898;DHT22;7019;50.766;4.474;2023-01-28T10:31:50;2.30;99.90
13898;DHT22;7019;50.766;4.474;2023-01-28T10:34:18;2.40;99.90
13898;DHT22;7019;50.766;4.474;2023-01-28T10:36:46;2.50;99.90
13898;DHT22;7019;50.766;4.474;2023-01-28T10:39:14;2.40;99.90
13898;DHT22;7019;50.766;4.474;2023-01-28T10:41:42;2.50;99.90
13898;DHT22;7019;50.766;4.474;2023-01-28T10:44:14;2.50;99.90
13898;DHT22;7019;50.766;4.474;2023-01-28T10:46:44;2.50;99.90
13898;DHT22;7019;50.766;4.474;2023-01-28T10:49:15;2.50;99.90
13898;DHT22;7019;50.766;4.474;2023-01-28T10:51:44;2.60;99.90
13898;DHT22;7019;50.766;4.474;2023-01-28T10:54:19;2.60;99.90
13898;DHT22;7019;50.766;4.474;2023-01-28T10:56:48;2.60;99.90
13898;DHT22;7019;50.766;4.474;2023-01-28T10:59:21;2.60;99.90
13898;DHT22;7019;50.766;4.474;2023-01-28T11:01:52;2.50;99.90
13898;DHT22;7019;50.766;4.474;2023-01-28T11:04:23;2.50;99.90
13898;DHT22;7019;50.766;4.474;2023-01-28T11:06:56;2.40;99.90
13898;DHT22;7019;50.766;4.474;2023-01-28T11:09:25;2.40;99.90
13898;DHT22;7019;50.766;4.474;2023-01-28T11:11:53;2.50;99.90
13898;DHT22;7019;50.766;4.474;2023-01-28T11:14:22;2.60;99.90
13898;DHT22;7019;50.766;4.474;2023-01-28T11:16:53;2.70;99.90
13898;DHT22;7019;50.766;4.474;2023-01-28T11:19:28;2.80;99.90
13898;DHT22;7019;50.766;4.474;2023-01-28T11:21:57;2.90;99.90
13898;DHT22;7019;50.766;4.474;2023-01-28T11:24:27;2.90;99.90
13898;DHT22;7019;50.766;4.474;2023-01-28T11:26:57;2.90;99.90
13898;DHT22;7019;50.766;4.474;2023-01-28T11:29:27;3.00;99.90
13898;DHT22;7019;50.766;4.474;2023-01-28T11:31:58;3.10;99.90
13898;DHT22;7019;50.766;4.474;2023-01-28T11:34:28;3.10;99.90
13898;DHT22;7019;50.766;4.474;2023-01-28T11:37:02;3.10;99.90
13898;DHT22;7019;50.766;4.474;2023-01-28T11:39:30;3.00;99.90
13898;DHT22;7019;50.766;4.474;2023-01-28T11:42:12;2.90;99.90
13898;DHT22;7019;50.766;4.474;2023-01-28T11:44:39;2.90;99.90
13898;DHT22;7019;50.766;4.474;2023-01-28T11:47:28;2.90;99.90
13898;DHT22;7019;50.766;4.474;2023-01-28T11:50:10;2.90;99.90
13898;DHT22;7019;50.766;4.474;2023-01-28T11:52:51;2.90;99.90
13898;DHT22;7019;50.766;4.474;2023-01-28T11:55:31;2.80;99.90
13898;DHT22;7019;50.766;4.474;2023-01-28T11:58:08;2.80;99.90
13898;DHT22;7019;50.766;4.474;2023-01-28T12:00:44;2.80;99.90
13898;DHT22;7019;50.766;4.474;2023-01-28T12:03:46;2.90;99.90
13898;DHT22;7019;50.766;4.474;2023-01-28T12:06:35;2.90;99.90
13898;DHT22;7019;50.766;4.474;2023-01-28T12:09:12;2.90;99.90
13898;DHT22;7019;50.766;4.474;2023-01-28T12:11:50;3.00;99.90
13898;DHT22;7019;50.766;4.474;2023-01-28T12:14:56;3.00;99.90
13898;DHT22;7019;50.766;4.474;2023-01-28T12:17:36;3.00;99.90
13898;DHT22;7019;50.766;4.474;2023-01-28T12:20:13;3.10;99.90
13898;DHT22;7019;50.766;4.474;2023-01-28T12:25:53;3.20;99.90
13898;DHT22;7019;50.766;4.474;2023-01-28T12:28:32;3.10;99.90
13898;DHT22;7019;50.766;4.474;2023-01-28T12:31:13;3.00;99.90
13898;DHT22;7019;50.766;4.474;2023-01-28T12:34:03;3.00;99.90
13898;DHT22;7019;50.766;4.474;2023-01-28T12:36:47;3.10;99.90
13898;DHT22;7019;50.766;4.474;2023-01-28T12:39:25;3.20;99.90
13898;DHT22;7019;50.766;4.474;2023-01-28T12:42:04;3.10;99.90
13898;DHT22;7019;50.766;4.474;2023-01-28T12:44:36;3.10;99.90
13898;DHT22;7019;50.766;4.474;2023-01-28T12:47:09;3.10;99.90
13898;DHT22;7019;50.766;4.474;2023-01-28T12:49:40;3.00;99.90
13898;DHT22;7019;50.766;4.474;2023-01-28T12:52:14;2.90;99.90
13898;DHT22;7019;50.766;4.474;2023-01-28T12:54:52;2.90;99.90
13898;DHT22;7019;50.766;4.474;2023-01-28T12:57:25;2.90;99.90
13898;DHT22;7019;50.766;4.474;2023-01-28T12:59:57;2.90;99.90
13898;DHT22;7019;50.766;4.474;2023-01-28T13:02:31;2.90;99.90
13898;DHT22;7019;50.766;4.474;2023-01-28T13:05:05;2.90;99.90
13898;DHT22;7019;50.766;4.474;2023-01-28T13:07:38;3.00;99.90
13898;DHT22;7019;50.766;4.474;2023-01-28T13:10:15;3.00;99.90
13898;DHT22;7019;50.766;4.474;2023-01-28T13:12:43;3.10;99.90
13898;DHT22;7019;50.766;4.474;2023-01-28T13:15:14;3.10;99.90
13898;DHT22;7019;50.766;4.474;2023-01-28T13:17:53;3.10;99.90
13898;DHT22;7019;50.766;4.474;2023-01-28T13:20:30;3.00;99.90
13898;DHT22;7019;50.766;4.474;2023-01-28T13:23:04;2.90;99.90
13898;DHT22;7019;50.766;4.474;2023-01-28T13:25:33;2.70;99.90
13898;DHT22;7019;50.766;4.474;2023-01-28T13:28:02;2.60;99.90
13898;DHT22;7019;50.766;4.474;2023-01-28T13:30:32;2.60;99.90
13898;DHT22;7019;50.766;4.474;2023-01-28T13:33:01;2.60;99.90
13898;DHT22;7019;50.766;4.474;2023-01-28T13:35:33;2.60;99.90
13898;DHT22;7019;50.766;4.474;2023-01-28T13:38:14;2.70;99.90
13898;DHT22;7019;50.766;4.474;2023-01-28T13:40:42;2.60;99.90
13898;DHT22;7019;50.766;4.474;2023-01-28T13:43:27;2.60;99.90
13898;DHT22;7019;50.766;4.474;2023-01-28T13:45:55;2.40;99.90
13898;DHT22;7019;50.766;4.474;2023-01-28T13:48:29;2.40;99.90
13898;DHT22;7019;50.766;4.474;2023-01-28T13:50:57;2.40;99.90
13898;DHT22;7019;50.766;4.474;2023-01-28T13:53:35;2.40;99.90
13898;DHT22;7019;50.766;4.474;2023-01-28T13:56:08;2.50;99.90
13898;DHT22;7019;50.766;4.474;2023-01-28T13:59:22;2.60;99.90
13898;DHT22;7019;50.766;4.474;2023-01-28T14:02:24;2.50;99.90
13898;DHT22;7019;50.766;4.474;2023-01-28T14:05:29;2.40;99.90
13898;DHT22;7019;50.766;4.474;2023-01-28T14:11:13;2.40;99.90
13898;DHT22;7019;50.766;4.474;2023-01-28T14:13:54;2.50;99.90
13898;DHT22;7019;50.766;4.474;2023-01-28T14:16:32;2.60;99.90
13898;DHT22;7019;50.766;4.474;2023-01-28T14:19:01;2.70;99.90
13898;DHT22;7019;50.766;4.474;2023-01-28T14:21:33;2.50;99.90
13898;DHT22;7019;50.766;4.474;2023-01-28T14:24:00;2.50;99.90
13898;DHT22;7019;50.766;4.474;2023-01-28T14:26:38;2.50;99.90
13898;DHT22;7019;50.766;4.474;2023-01-28T14:29:21;2.60;99.90
13898;DHT22;7019;50.766;4.474;2023-01-28T14:31:50;2.60;99.90
13898;DHT22;7019;50.766;4.474;2023-01-28T14:34:22;2.60;99.90
13898;DHT22;7019;50.766;4.474;2023-01-28T14:36:51;2.60;99.90
13898;DHT22;7019;50.766;4.474;2023-01-28T14:39:24;2.60;99.90
13898;DHT22;7019;50.766;4.474;2023-01-28T14:41:55;2.60;99.90
13898;DHT22;7019;50.766;4.474;2023-01-28T14:44:29;2.60;99.90
13898;DHT22;7019;50.766;4.474;2023-01-28T14:50:07;2.60;99.90
13898;DHT22;7019;50.766;4.474;2023-01-28T14:52:52;2.60;99.90
13898;DHT22;7019;50.766;4.474;2023-01-28T14:55:31;2.60;99.90
13898;DHT22;7019;50.766;4.474;2023-01-28T14:58:03;2.50;99.90
13898;DHT22;7019;50.766;4.474;2023-01-28T15:00:33;2.40;99.90
13898;DHT22;7019;50.766;4.474;2023-01-28T15:03:08;2.30;99.90
13898;DHT22;7019;50.766;4.474;2023-01-28T15:05:35;2.20;99.90
13898;DHT22;7019;50.766;4.474;2023-01-28T15:08:03;2.20;99.90
13898;DHT22;7019;50.766;4.474;2023-01-28T15:10:34;2.20;99.90
13898;DHT22;7019;50.766;4.474;2023-01-28T15:13:07;2.20;99.90
13898;DHT22;7019;50.766;4.474;2023-01-28T15:15:36;2.10;99.90
13898;DHT22;7019;50.766;4.474;2023-01-28T15:18:11;2.10;99.90
13898;DHT22;7019;50.766;4.474;2023-01-28T15:20:43;2.00;99.90
13898;DHT22;7019;50.766;4.474;2023-01-28T15:23:14;2.00;99.90
13898;DHT22;7019;50.766;4.474;2023-01-28T15:25:43;2.00;99.90
13898;DHT22;7019;50.766;4.474;2023-01-28T15:28:18;2.00;99.90
13898;DHT22;7019;50.766;4.474;2023-01-28T15:30:48;2.00;99.90
13898;DHT22;7019;50.766;4.474;2023-01-28T15:33:16;1.90;99.90
13898;DHT22;7019;50.766;4.474;2023-01-28T15:35:46;1.90;99.90
13898;DHT22;7019;50.766;4.474;2023-01-28T15:38:13;1.90;99.90
13898;DHT22;7019;50.766;4.474;2023-01-28T15:40:45;1.90;99.90
13898;DHT22;7019;50.766;4.474;2023-01-28T15:43:19;1.80;99.90
13898;DHT22;7019;50.766;4.474;2023-01-28T15:45:49;1.80;99.90
13898;DHT22;7019;50.766;4.474;2023-01-28T15:48:20;1.90;99.90
13898;DHT22;7019;50.766;4.474;2023-01-28T15:50:57;1.90;99.90
13898;DHT22;7019;50.766;4.474;2023-01-28T15:53:24;1.90;99.90
13898;DHT22;7019;50.766;4.474;2023-01-28T15:56:04;1.90;99.90
13898;DHT22;7019;50.766;4.474;2023-01-28T15:58:33;1.80;99.90
13898;DHT22;7019;50.766;4.474;2023-01-28T16:01:14;1.70;99.90
13898;DHT22;7019;50.766;4.474;2023-01-28T16:03:43;1.60;99.90
13898;DHT22;7019;50.766;4.474;2023-01-28T16:06:13;1.40;99.90
13898;DHT22;7019;50.766;4.474;2023-01-28T16:08:46;1.40;99.90
13898;DHT22;7019;50.766;4.474;2023-01-28T16:11:22;1.20;99.90
13898;DHT22;7019;50.766;4.474;2023-01-28T16:13:51;1.10;99.90
13898;DHT22;7019;50.766;4.474;2023-01-28T16:16:26;1.00;99.90
13898;DHT22;7019;50.766;4.474;2023-01-28T16:18:54;0.90;99.90
13898;DHT22;7019;50.766;4.474;2023-01-28T16:21:24;0.80;99.90
13898;DHT22;7019;50.766;4.474;2023-01-28T16:23:56;0.80;99.90
13898;DHT22;7019;50.766;4.474;2023-01-28T16:26:25;0.70;99.90
13898;DHT22;7019;50.766;4.474;2023-01-28T16:28:54;0.60;99.90
13898;DHT22;7019;50.766;4.474;2023-01-28T16:31:21;0.60;99.90
13898;DHT22;7019;50.766;4.474;2023-01-28T16:33:48;0.60;99.90
13898;DHT22;7019;50.766;4.474;2023-01-28T16:36:16;0.60;99.90
13898;DHT22;7019;50.766;4.474;2023-01-28T16:38:44;0.60;99.90
13898;DHT22;7019;50.766;4.474;2023-01-28T16:41:12;0.70;99.90
13898;DHT22;7019;50.766;4.474;2023-01-28T16:43:39;0.70;99.90